Tuesday, December 18, 2018, 4:18 PM EST
Back to Local

KMMU, Morristown Municipal

Location: Morristown, NJ, United States Lat: 40.8
Local Time: 4:18 PM EST (21:18 GMT) Lon: -74.417
Time Zone: US/Eastern Elev: 187 ft

Show me the last for .
Show Decoded

2018-12-18 15:45 METAR KMMU 182045Z 35005G13KT 10SM SKC 01/M09 A3010 =
2018-12-18 15:03 METAR KMMU 182003Z 34007G16KT 10SM SKC 02/M09 A3008 =
2018-12-18 14:45 METAR KMMU 181945Z 33012G22KT 10SM SKC 02/M09 A3007 =
2018-12-18 13:45 METAR KMMU 181845Z 33011G19KT 10SM SKC 02/M09 A3006 =
2018-12-18 12:45 METAR KMMU 181745Z 32009G16KT 10SM FEW046 02/M09 A3006 =
2018-12-18 11:45 METAR KMMU 181645Z 33010G19KT 10SM FEW048 01/M08 A3006 =
2018-12-18 10:45 METAR KMMU 181545Z 35017G28KT 10SM FEW045 01/M09 A3005 =
2018-12-18 09:45 METAR KMMU 181445Z 35012G22KT 10SM SCT045 01/M09 A3006 =
2018-12-18 08:50 METAR KMMU 181350Z 35011G28KT 10SM SCT042 00/M08 A3003 =
2018-12-18 07:50 METAR KMMU 181250Z 34011G23KT 10SM SCT042 M01/M07 A2999 =
2018-12-18 06:46 METAR KMMU 181146Z 34012G23KT 10SM SCT046 00/M07 A2996 =
2018-12-18 06:45 METAR KMMU 181145Z 34012G23KT 10SM SCT046 00/M07 A2996 =
2018-12-18 06:35 METAR KMMU 181135Z AUTO 32011G17KT 10SM SCT046 M00/M09 A2995 RMK AO2 =
2018-12-18 06:15 METAR KMMU 181115Z AUTO 33010G16KT 10SM SCT048 00/M08 A2994 RMK AO2 =
2018-12-18 05:55 METAR KMMU 181055Z AUTO 32010G15KT 10SM BKN048 00/M08 A2994 RMK AO2 =
2018-12-18 05:35 METAR KMMU 181035Z AUTO 31010G17KT 10SM OVC046 00/M08 A2993 RMK AO2 =
2018-12-18 05:15 METAR KMMU 181015Z AUTO 32013G19KT 10SM OVC046 00/M08 A2992 RMK AO2 =
2018-12-18 04:55 METAR KMMU 180955Z AUTO 29011G17KT 10SM BKN046 01/M08 A2991 RMK AO2 =
2018-12-18 04:35 METAR KMMU 180935Z AUTO 31014G24KT 10SM BKN046 01/M08 A2990 RMK AO2 =
2018-12-18 04:15 METAR KMMU 180915Z AUTO 29011G23KT 10SM BKN048 BKN055 01/M07 A2988 RMK AO2 =
2018-12-18 03:55 METAR KMMU 180855Z AUTO 32013G28KT 10SM SCT048 01/M08 A2987 RMK AO2 =
2018-12-18 03:35 METAR KMMU 180835Z AUTO 32017G26KT 10SM BKN046 01/M07 A2987 RMK AO2 =
2018-12-18 03:15 METAR KMMU 180815Z AUTO 31009G16KT 10SM OVC048 01/M07 A2986 RMK AO2 =
2018-12-18 02:55 METAR KMMU 180755Z AUTO 30009G19KT 10SM BKN048 02/M07 A2985 RMK AO2 =
2018-12-18 02:35 METAR KMMU 180735Z AUTO 31013G18KT 10SM SCT048 02/M07 A2984 RMK AO2 =
2018-12-18 02:15 METAR KMMU 180715Z AUTO 31012G22KT 10SM SCT048 02/M07 A2983 RMK AO2 =
2018-12-18 01:55 METAR KMMU 180655Z AUTO 31009G34KT 10SM SCT050 02/M07 A2983 RMK AO2 =
2018-12-18 01:35 METAR KMMU 180635Z AUTO 32012G28KT 10SM BKN050 03/M07 A2983 RMK AO2 =
2018-12-18 01:15 METAR KMMU 180615Z AUTO 32006KT 10SM OVC047 03/M05 A2982 RMK AO2 =
2018-12-18 00:55 METAR KMMU 180555Z AUTO 31009G22KT 10SM BKN047 OVC060 04/M05 A2981 RMK AO2 =
2018-12-18 00:35 METAR KMMU 180535Z AUTO 30010G22KT 10SM SCT041 OVC060 04/M05 A2979 RMK AO2 =
2018-12-18 00:15 METAR KMMU 180515Z AUTO 31013G19KT 10SM OVC041 04/M04 A2979 RMK AO2 =
2018-12-17 23:55 METAR KMMU 180455Z AUTO 32010G18KT 10SM OVC043 04/M04 A2979 RMK AO2 =
2018-12-17 23:35 METAR KMMU 180435Z AUTO 31011G23KT 10SM OVC045 04/M04 A2979 RMK AO2 =
2018-12-17 23:15 METAR KMMU 180415Z AUTO 30009G21KT 10SM OVC045 04/M04 A2979 RMK AO2 =
2018-12-17 22:55 METAR KMMU 180355Z AUTO 30016G22KT 10SM BKN042 OVC050 04/M04 A2979 RMK AO2 =
2018-12-17 22:35 METAR KMMU 180335Z AUTO 30013G27KT 10SM BKN043 OVC048 04/M03 A2980 RMK AO2 =
2018-12-17 22:15 METAR KMMU 180315Z AUTO 31012G22KT 10SM SCT040 BKN048 OVC065 04/M03 A2980 RMK
                 AO2 =
2018-12-17 21:55 METAR KMMU 180255Z 30016G22KT 10SM BKN048 OVC055 04/M03 A2980 =
2018-12-17 20:45 METAR KMMU 180145Z 28011G17KT 10SM OVC044 05/M03 A2980 =
2018-12-17 19:45 METAR KMMU 180045Z 32008G14KT 10SM OVC047 05/M03 A2980 =
2018-12-17 18:45 METAR KMMU 172345Z 31009G18KT 10SM OVC043 05/M02 A2980 =
2018-12-17 17:55 METAR KMMU 172255Z 32010G18KT 10SM BKN042 OVC048 05/M02 A2979 =
2018-12-17 16:45 METAR KMMU 172145Z 31010G22KT 10SM OVC046 06/M02 A2976 =

Support USWX by starting your Amazon purchase here.